createdAt,value
2023-04-09T00:00:59.123Z,20.64
2023-04-09T00:01:59.219Z,20.68
2023-04-09T00:02:59.342Z,20.62
2023-04-09T00:03:59.470Z,20.65
2023-04-09T00:04:59.405Z,20.65
2023-04-09T00:05:59.423Z,20.68
2023-04-09T00:06:59.478Z,20.72
2023-04-09T00:07:59.531Z,20.65
2023-04-09T00:08:59.599Z,20.62
2023-04-09T00:09:59.684Z,20.62
2023-04-09T00:10:59.716Z,20.70
2023-04-09T00:11:59.773Z,20.67
2023-04-09T00:12:59.822Z,20.65
2023-04-09T00:13:59.878Z,20.67
2023-04-09T00:14:59.951Z,20.61
2023-04-09T00:15:59.949Z,20.67
2023-04-09T00:16:59.945Z,20.73
2023-04-09T00:18:00.032Z,20.67
2023-04-09T00:18:59.940Z,20.70
2023-04-09T00:19:59.921Z,20.65
2023-04-09T00:20:59.894Z,20.73
2023-04-09T00:21:59.896Z,20.77
2023-04-09T00:22:59.897Z,20.77
2023-04-09T00:23:59.924Z,20.75
2023-04-09T00:24:59.966Z,20.75
2023-04-09T00:26:00.032Z,20.73
2023-04-09T00:27:00.102Z,20.72
2023-04-09T00:28:00.158Z,20.73
2023-04-09T00:29:00.201Z,20.75
2023-04-09T00:30:00.274Z,20.72
2023-04-09T00:31:00.311Z,20.70
2023-04-09T00:32:00.422Z,20.73
2023-04-09T00:33:00.473Z,20.75
2023-04-09T00:34:00.493Z,20.75
2023-04-09T00:35:00.540Z,20.77
2023-04-09T00:36:00.622Z,20.77
2023-04-09T00:37:00.642Z,20.78
2023-04-09T00:38:00.695Z,20.80
2023-04-09T00:39:00.741Z,20.77
2023-04-09T00:40:00.815Z,20.73
2023-04-09T00:41:00.850Z,20.73
2023-04-09T00:42:00.909Z,20.81
2023-04-09T00:43:01.000Z,20.78
2023-04-09T00:44:01.030Z,20.77
2023-04-09T00:45:01.101Z,20.75
2023-04-09T00:46:01.094Z,20.78
2023-04-09T00:47:01.051Z,20.77
2023-04-09T00:48:01.145Z,20.78
2023-04-09T00:49:01.075Z,20.70
2023-04-09T00:50:01.030Z,20.78
2023-04-09T00:51:01.033Z,20.85
2023-04-09T00:52:00.999Z,20.81
2023-04-09T00:53:00.991Z,20.83
2023-04-09T00:54:01.052Z,20.81
2023-04-09T00:55:01.126Z,20.80
2023-04-09T00:56:01.157Z,20.84
2023-04-09T00:57:01.206Z,20.80
2023-04-09T00:58:01.287Z,20.86
2023-04-09T00:59:01.385Z,20.88
2023-04-09T01:00:01.385Z,20.80
2023-04-09T01:01:01.475Z,20.81
2023-04-09T01:02:01.569Z,20.88
2023-04-09T01:03:01.632Z,20.89
2023-04-09T01:04:01.594Z,20.80
2023-04-09T01:05:01.688Z,20.88
2023-04-09T01:06:01.694Z,20.89
2023-04-09T01:07:01.743Z,20.88
2023-04-09T01:08:01.814Z,20.83
2023-04-09T01:09:01.872Z,20.90
2023-04-09T01:10:01.776Z,20.89
2023-04-09T01:11:01.779Z,20.84
2023-04-09T01:12:01.775Z,20.86
2023-04-09T01:13:01.740Z,20.89
2023-04-09T01:14:01.751Z,20.88
2023-04-09T01:15:01.749Z,20.94
2023-04-09T01:16:01.714Z,20.86
2023-04-09T01:17:01.731Z,20.94
2023-04-09T01:18:01.755Z,20.86
2023-04-09T01:19:01.690Z,20.88
2023-04-09T01:20:01.731Z,20.93
2023-04-09T01:21:01.681Z,20.96
2023-04-09T01:22:01.774Z,20.88
2023-04-09T01:23:01.725Z,20.97
2023-04-09T01:24:01.793Z,20.94
2023-04-09T01:25:01.857Z,20.93
2023-04-09T01:26:01.905Z,20.94
2023-04-09T01:27:01.966Z,20.94
2023-04-09T01:28:02.037Z,20.94
2023-04-09T01:29:02.104Z,20.91
2023-04-09T01:30:02.145Z,21.00
2023-04-09T01:31:02.238Z,20.97
2023-04-09T01:32:02.266Z,20.93
2023-04-09T01:33:02.315Z,20.99
2023-04-09T01:34:02.391Z,20.94
2023-04-09T01:35:02.429Z,20.97
2023-04-09T01:36:02.522Z,20.93
2023-04-09T01:37:02.554Z,20.93
2023-04-09T01:38:02.605Z,20.94
2023-04-09T01:39:02.666Z,20.96
2023-04-09T01:40:02.735Z,20.94
2023-04-09T01:41:02.772Z,20.99
2023-04-09T01:42:02.845Z,20.97
2023-04-09T01:43:02.910Z,20.97
2023-04-09T01:44:02.964Z,20.97
2023-04-09T01:45:02.964Z,21.00
2023-04-09T01:46:02.968Z,20.97
2023-04-09T01:47:02.946Z,21.00
2023-04-09T01:48:03.030Z,20.99
2023-04-09T01:49:02.917Z,21.02
2023-04-09T01:50:02.927Z,20.94
2023-04-09T01:51:02.918Z,20.99
2023-04-09T01:52:02.933Z,20.96
2023-04-09T01:53:02.965Z,21.00
2023-04-09T01:54:03.035Z,20.96
2023-04-09T01:55:03.095Z,21.04
2023-04-09T01:56:03.142Z,20.96
2023-04-09T01:57:03.207Z,20.97
2023-04-09T01:58:03.259Z,20.99
2023-04-09T01:59:03.312Z,20.99
2023-04-09T02:00:03.384Z,20.99
2023-04-09T02:01:03.429Z,21.05
2023-04-09T02:02:03.515Z,21.05
2023-04-09T02:03:03.628Z,21.02
2023-04-09T02:04:03.695Z,21.05
2023-04-09T02:05:03.686Z,21.02
2023-04-09T02:06:03.738Z,21.05
2023-04-09T02:07:03.803Z,21.02
2023-04-09T02:08:03.863Z,21.05
2023-04-09T02:09:03.909Z,21.10
2023-04-09T02:10:03.978Z,21.07
2023-04-09T02:11:04.033Z,21.08
2023-04-09T02:12:04.083Z,21.05
2023-04-09T02:13:04.169Z,21.07
2023-04-09T02:14:04.154Z,21.02
2023-04-09T02:15:04.160Z,21.08
2023-04-09T02:16:04.191Z,21.05
2023-04-09T02:17:04.120Z,21.04
2023-04-09T02:18:04.127Z,21.05
2023-04-09T02:19:04.107Z,21.07
2023-04-09T02:20:04.097Z,21.00
2023-04-09T02:21:04.100Z,21.07
2023-04-09T02:22:04.180Z,21.07
2023-04-09T02:23:04.242Z,21.07
2023-04-09T02:24:04.277Z,21.03
2023-04-09T02:25:04.348Z,21.07
2023-04-09T02:26:04.427Z,21.00
2023-04-09T02:27:04.464Z,21.05
2023-04-09T02:28:04.531Z,21.08
2023-04-09T02:29:04.600Z,21.13
2023-04-09T02:30:04.665Z,21.07
2023-04-09T02:31:04.748Z,21.11
2023-04-09T02:32:04.774Z,21.13
2023-04-09T02:33:04.845Z,21.10
2023-04-09T02:34:04.838Z,21.11
2023-04-09T02:35:04.835Z,21.11
2023-04-09T02:36:04.881Z,21.08
2023-04-09T02:37:04.819Z,21.03
2023-04-09T02:38:04.807Z,20.97
2023-04-09T02:39:04.794Z,20.85
2023-04-09T02:40:04.793Z,20.82
2023-04-09T02:41:04.796Z,20.78
2023-04-09T02:42:04.822Z,20.75
2023-04-09T02:43:04.852Z,20.74
2023-04-09T02:44:04.875Z,20.77
2023-04-09T02:45:04.872Z,20.70
2023-04-09T02:46:04.904Z,20.65
2023-04-09T02:47:04.861Z,20.59
2023-04-09T02:48:04.871Z,20.67
2023-04-09T02:49:04.871Z,20.62
2023-04-09T02:50:04.879Z,20.64
2023-04-09T02:51:04.904Z,20.56
2023-04-09T02:52:04.935Z,20.53
2023-04-09T02:53:04.940Z,20.56
2023-04-09T02:54:04.960Z,20.47
2023-04-09T02:55:04.986Z,20.45
2023-04-09T02:56:05.019Z,20.47
2023-04-09T02:57:05.014Z,20.47
2023-04-09T02:58:05.034Z,20.42
2023-04-09T02:59:05.060Z,20.42
2023-04-09T03:00:05.088Z,20.42
2023-04-09T03:01:05.133Z,20.38
2023-04-09T03:02:05.249Z,20.32
2023-04-09T03:03:05.338Z,20.38
2023-04-09T03:04:05.300Z,20.29
2023-04-09T03:05:05.238Z,20.21
2023-04-09T03:06:05.270Z,20.32
2023-04-09T03:07:05.303Z,20.31
2023-04-09T03:08:05.317Z,20.22
2023-04-09T03:09:05.352Z,20.30
2023-04-09T03:10:05.399Z,20.17
2023-04-09T03:11:05.478Z,20.15
2023-04-09T03:12:05.484Z,20.18
2023-04-09T03:13:05.517Z,20.10
2023-04-09T03:14:05.552Z,20.21
2023-04-09T03:15:05.586Z,20.17
2023-04-09T03:16:05.675Z,20.21
2023-04-09T03:17:05.670Z,20.15
2023-04-09T03:18:05.727Z,20.23
2023-04-09T03:19:05.741Z,20.07
2023-04-09T03:20:05.808Z,20.12
2023-04-09T03:21:05.859Z,20.07
2023-04-09T03:22:05.887Z,20.04
2023-04-09T03:23:05.922Z,20.02
2023-04-09T03:24:05.974Z,20.10
2023-04-09T03:25:06.014Z,20.04
2023-04-09T03:26:06.077Z,19.94
2023-04-09T03:27:06.093Z,20.07
2023-04-09T03:28:06.132Z,20.07
2023-04-09T03:29:06.170Z,20.02
2023-04-09T03:30:06.188Z,20.00
2023-04-09T03:31:06.186Z,20.05
2023-04-09T03:32:06.172Z,20.01
2023-04-09T03:33:06.205Z,20.05
2023-04-09T03:34:06.177Z,20.01
2023-04-09T03:35:06.211Z,19.95
2023-04-09T03:36:06.231Z,20.01
2023-04-09T03:37:06.205Z,19.97
2023-04-09T03:38:06.209Z,20.00
2023-04-09T03:39:06.207Z,19.98
2023-04-09T03:40:06.189Z,19.97
2023-04-09T03:41:06.216Z,19.87
2023-04-09T03:42:06.215Z,19.95
2023-04-09T03:43:06.226Z,19.93
2023-04-09T03:44:06.284Z,19.93
2023-04-09T03:45:06.390Z,19.90
2023-04-09T03:46:06.403Z,19.82
2023-04-09T03:47:06.465Z,19.85
2023-04-09T03:48:06.493Z,19.95
2023-04-09T03:49:06.566Z,19.88
2023-04-09T03:50:06.634Z,19.85
2023-04-09T03:51:06.689Z,19.87
2023-04-09T03:52:06.737Z,19.80
2023-04-09T03:53:06.809Z,19.75
2023-04-09T03:54:06.817Z,19.90
2023-04-09T03:55:06.811Z,19.83
2023-04-09T03:56:06.833Z,19.86
2023-04-09T03:57:06.827Z,19.82
2023-04-09T03:58:06.846Z,19.89
2023-04-09T03:59:06.850Z,19.77
2023-04-09T04:00:06.855Z,19.75
2023-04-09T04:01:06.946Z,19.74
2023-04-09T04:02:06.948Z,19.78
2023-04-09T04:03:07.123Z,19.78
2023-04-09T04:04:07.045Z,19.75
2023-04-09T04:05:06.903Z,19.73
2023-04-09T04:06:06.930Z,19.73
2023-04-09T04:07:06.970Z,19.93
2023-04-09T04:08:07.005Z,19.73
2023-04-09T04:09:07.131Z,19.77
2023-04-09T04:10:07.108Z,19.81
2023-04-09T04:11:07.176Z,19.80
2023-04-09T04:12:07.210Z,19.68
2023-04-09T04:13:07.272Z,19.75
2023-04-09T04:14:07.340Z,19.75
2023-04-09T04:15:07.386Z,19.70
2023-04-09T04:16:07.491Z,19.70
2023-04-09T04:17:07.502Z,19.83
2023-04-09T04:18:07.561Z,19.72
2023-04-09T04:19:07.625Z,19.70
2023-04-09T04:20:07.696Z,19.65
2023-04-09T04:21:07.735Z,19.70
2023-04-09T04:22:07.804Z,19.70
2023-04-09T04:23:07.848Z,19.73
2023-04-09T04:24:07.911Z,19.67
2023-04-09T04:25:08.000Z,19.59
2023-04-09T04:26:08.050Z,19.64
2023-04-09T04:27:08.120Z,19.60
2023-04-09T04:28:08.158Z,19.59
2023-04-09T04:29:08.232Z,19.57
2023-04-09T04:30:08.291Z,19.65
2023-04-09T04:31:08.354Z,19.67
2023-04-09T04:32:08.409Z,19.56
2023-04-09T04:33:08.476Z,19.60
2023-04-09T04:34:08.541Z,19.61
2023-04-09T04:35:08.617Z,19.60
2023-04-09T04:36:08.682Z,19.62
2023-04-09T04:37:08.754Z,19.65
2023-04-09T04:38:08.805Z,19.51
2023-04-09T04:39:08.869Z,19.57
2023-04-09T04:40:08.946Z,19.60
2023-04-09T04:41:09.010Z,19.60
2023-04-09T04:42:09.089Z,19.54
2023-04-09T04:43:09.134Z,19.56
2023-04-09T04:44:09.205Z,19.65
2023-04-09T04:45:09.275Z,19.54
2023-04-09T04:46:09.378Z,19.60
2023-04-09T04:47:09.404Z,19.60
2023-04-09T04:48:09.487Z,19.57
2023-04-09T04:49:09.570Z,19.62
2023-04-09T04:50:09.609Z,19.57
2023-04-09T04:51:09.683Z,19.58
2023-04-09T04:52:09.761Z,19.60
2023-04-09T04:53:09.848Z,19.58
2023-04-09T04:54:09.901Z,19.58
2023-04-09T04:55:09.975Z,19.58
2023-04-09T04:56:10.040Z,19.64
2023-04-09T04:57:10.111Z,19.55
2023-04-09T04:58:10.181Z,19.67
2023-04-09T04:59:10.263Z,19.65
2023-04-09T05:00:10.332Z,19.62
2023-04-09T05:01:10.443Z,19.68
2023-04-09T05:02:10.579Z,19.58
2023-04-09T05:03:10.657Z,19.53
2023-04-09T05:04:10.600Z,19.55
2023-04-09T05:05:10.670Z,19.68
2023-04-09T05:06:10.741Z,19.57
2023-04-09T05:07:10.824Z,19.52
2023-04-09T05:08:10.904Z,19.58
2023-04-09T05:09:10.975Z,19.55
2023-04-09T05:10:11.053Z,19.51
2023-04-09T05:11:11.134Z,19.51
2023-04-09T05:12:11.205Z,19.52
2023-04-09T05:13:11.267Z,19.55
2023-04-09T05:14:11.330Z,19.47
2023-04-09T05:15:11.404Z,19.46
2023-04-09T05:16:11.519Z,19.62
2023-04-09T05:17:11.996Z,19.57
2023-04-09T05:18:11.590Z,19.55
2023-04-09T05:19:11.667Z,19.56
2023-04-09T05:20:11.795Z,19.68
2023-04-09T05:21:11.802Z,19.63
2023-04-09T05:22:11.917Z,19.57
2023-04-09T05:23:11.942Z,19.55
2023-04-09T05:24:12.032Z,19.65
2023-04-09T05:25:12.076Z,19.47
2023-04-09T05:26:12.151Z,19.55
2023-04-09T05:27:12.227Z,19.55
2023-04-09T05:28:12.281Z,19.57
2023-04-09T05:29:12.354Z,19.55
2023-04-09T05:30:12.432Z,19.65
2023-04-09T05:31:12.610Z,19.55
2023-04-09T05:32:12.587Z,19.58
2023-04-09T05:33:12.636Z,19.52
2023-04-09T05:34:12.729Z,19.60
2023-04-09T05:35:12.765Z,19.47
2023-04-09T05:36:12.881Z,19.58
2023-04-09T05:37:12.941Z,19.65
2023-04-09T05:38:12.980Z,19.53
2023-04-09T05:39:13.071Z,19.58
2023-04-09T05:40:13.114Z,19.52
2023-04-09T05:41:13.191Z,19.44
2023-04-09T05:42:13.269Z,19.55
2023-04-09T05:43:13.344Z,19.52
2023-04-09T05:44:13.400Z,19.52
2023-04-09T05:45:13.483Z,19.55
2023-04-09T05:46:13.559Z,19.52
2023-04-09T05:47:13.653Z,19.52
2023-04-09T05:48:13.685Z,19.58
2023-04-09T05:49:13.762Z,19.49
2023-04-09T05:50:13.829Z,19.52
2023-04-09T05:51:13.932Z,19.55
2023-04-09T05:52:14.009Z,19.49
2023-04-09T05:53:14.122Z,19.50
2023-04-09T05:54:14.148Z,19.55
2023-04-09T05:55:14.226Z,19.49
2023-04-09T05:56:14.304Z,19.50
2023-04-09T05:57:14.379Z,19.47
2023-04-09T05:58:14.458Z,19.50
2023-04-09T05:59:14.519Z,19.52
2023-04-09T06:00:14.596Z,19.44
2023-04-09T06:01:14.683Z,19.47
2023-04-09T06:02:15.024Z,19.56
2023-04-09T06:03:15.013Z,19.44
2023-04-09T06:04:15.056Z,19.49
2023-04-09T06:05:14.971Z,19.50
2023-04-09T06:06:15.045Z,19.55
2023-04-09T06:07:15.123Z,19.50
2023-04-09T06:08:15.198Z,19.48
2023-04-09T06:09:15.291Z,19.52
2023-04-09T06:10:15.362Z,19.52
2023-04-09T06:11:15.430Z,19.50
2023-04-09T06:12:15.503Z,19.59
2023-04-09T06:13:15.527Z,19.58
2023-04-09T06:14:15.529Z,19.58
2023-04-09T06:15:15.546Z,19.52
2023-04-09T06:16:15.602Z,19.58
2023-04-09T06:17:15.576Z,19.75
2023-04-09T06:18:15.608Z,19.43
2023-04-09T06:19:15.598Z,19.50
2023-04-09T06:20:15.606Z,19.61
2023-04-09T06:21:15.615Z,19.61
2023-04-09T06:22:15.690Z,19.53
2023-04-09T06:23:15.786Z,19.69
2023-04-09T06:24:15.831Z,19.64
2023-04-09T06:25:15.923Z,19.63
2023-04-09T06:26:15.994Z,19.61
2023-04-09T06:27:16.075Z,19.69
2023-04-09T06:28:16.143Z,19.73
2023-04-09T06:29:16.212Z,19.47
2023-04-09T06:30:16.298Z,19.59
2023-04-09T06:31:16.381Z,19.66
2023-04-09T06:32:16.473Z,19.67
2023-04-09T06:33:16.570Z,19.63
2023-04-09T06:34:16.616Z,19.56
2023-04-09T06:35:16.695Z,19.59
2023-04-09T06:36:16.849Z,19.66
2023-04-09T06:37:16.873Z,19.63
2023-04-09T06:38:16.955Z,19.56
2023-04-09T06:39:17.023Z,19.56
2023-04-09T06:40:17.140Z,19.68
2023-04-09T06:41:17.173Z,19.50
2023-04-09T06:42:17.249Z,19.58
2023-04-09T06:43:17.361Z,19.59
2023-04-09T06:44:17.406Z,19.76
2023-04-09T06:45:17.498Z,19.63
2023-04-09T06:46:17.617Z,19.59
2023-04-09T06:47:17.650Z,19.66
2023-04-09T06:48:17.740Z,19.58
2023-04-09T06:49:17.835Z,19.55
2023-04-09T06:50:17.885Z,19.64
2023-04-09T06:51:17.973Z,19.63
2023-04-09T06:52:18.049Z,19.66
2023-04-09T06:53:18.163Z,19.63
2023-04-09T06:54:18.201Z,19.63
2023-04-09T06:55:18.295Z,19.71
2023-04-09T06:56:18.394Z,19.66
2023-04-09T06:57:18.435Z,19.74
2023-04-09T06:58:18.539Z,19.67
2023-04-09T06:59:18.682Z,19.59
2023-04-09T07:00:18.673Z,19.73
2023-04-09T07:01:18.833Z,19.71
2023-04-09T07:02:18.946Z,19.70
2023-04-09T07:03:19.104Z,19.65
2023-04-09T07:04:19.039Z,19.69
2023-04-09T07:05:19.059Z,19.60
2023-04-09T07:06:19.132Z,19.45
2023-04-09T07:07:19.202Z,19.48
2023-04-09T07:08:19.318Z,19.43
2023-04-09T07:09:19.305Z,19.37
2023-04-09T07:10:19.374Z,19.38
2023-04-09T07:11:19.431Z,19.38
2023-04-09T07:12:19.463Z,19.25
2023-04-09T07:13:19.636Z,19.19
2023-04-09T07:14:19.564Z,19.21
2023-04-09T07:15:19.596Z,19.19
2023-04-09T07:16:19.698Z,19.18
2023-04-09T07:17:19.669Z,19.18
2023-04-09T07:18:19.712Z,19.13
2023-04-09T07:19:19.821Z,19.18
2023-04-09T07:20:19.765Z,19.13
2023-04-09T07:21:19.803Z,19.09
2023-04-09T07:22:19.815Z,19.15
2023-04-09T07:23:19.908Z,19.11
2023-04-09T07:24:19.878Z,19.14
2023-04-09T07:25:19.910Z,19.14
2023-04-09T07:26:19.942Z,19.13
2023-04-09T07:27:19.957Z,19.11
2023-04-09T07:28:19.998Z,19.18
2023-04-09T07:29:19.997Z,19.18
2023-04-09T07:30:20.035Z,19.16
2023-04-09T07:31:20.058Z,19.15
2023-04-09T07:32:20.103Z,19.15
2023-04-09T07:33:20.327Z,19.20
2023-04-09T07:34:20.138Z,19.15
2023-04-09T07:35:20.161Z,19.15
2023-04-09T07:36:20.224Z,19.21
2023-04-09T07:37:20.210Z,19.21
2023-04-09T07:38:20.257Z,19.19
2023-04-09T07:39:20.254Z,19.33
2023-04-09T07:40:20.279Z,19.39
2023-04-09T07:41:20.312Z,19.50
2023-04-09T07:42:20.347Z,19.43
2023-04-09T07:43:21.478Z,19.53
2023-04-09T07:44:20.445Z,19.56
2023-04-09T07:45:20.467Z,19.67
2023-04-09T07:46:20.541Z,19.62
2023-04-09T07:47:20.887Z,19.69
2023-04-09T07:48:20.636Z,19.74
2023-04-09T07:49:20.695Z,19.65
2023-04-09T07:50:20.722Z,19.57
2023-04-09T07:51:20.768Z,19.60
2023-04-09T07:52:20.834Z,19.62
2023-04-09T07:53:20.880Z,19.71
2023-04-09T07:54:20.937Z,19.69
2023-04-09T07:55:21.008Z,19.63
2023-04-09T07:56:21.053Z,19.60
2023-04-09T07:57:21.103Z,19.63
2023-04-09T07:58:21.121Z,19.58
2023-04-09T07:59:21.125Z,19.66
2023-04-09T08:00:21.133Z,19.69
2023-04-09T08:01:21.132Z,19.71
2023-04-09T08:02:21.202Z,19.64
2023-04-09T08:03:21.316Z,19.72
2023-04-09T08:04:21.356Z,19.77
2023-04-09T08:05:21.257Z,19.70
2023-04-09T08:06:21.179Z,19.69
2023-04-09T08:07:21.170Z,19.67
2023-04-09T08:08:21.197Z,19.73
2023-04-09T08:09:21.210Z,19.70
2023-04-09T08:10:21.194Z,19.73
2023-04-09T08:11:21.220Z,19.69
2023-04-09T08:12:21.227Z,19.65
2023-04-09T08:13:21.261Z,19.68
2023-04-09T08:14:21.383Z,19.68
2023-04-09T08:15:21.333Z,19.64
2023-04-09T08:16:21.435Z,19.77
2023-04-09T08:17:21.359Z,19.86
2023-04-09T08:18:21.381Z,19.73
2023-04-09T08:19:21.370Z,19.70
2023-04-09T08:20:21.375Z,19.70
2023-04-09T08:21:21.393Z,19.66
2023-04-09T08:22:21.399Z,19.81
2023-04-09T08:23:21.415Z,19.75
2023-04-09T08:24:21.491Z,19.77
2023-04-09T08:25:21.420Z,19.69
2023-04-09T08:26:21.448Z,19.72
2023-04-09T08:27:21.525Z,19.70
2023-04-09T08:28:21.585Z,19.75
2023-04-09T08:29:21.657Z,19.73
2023-04-09T08:30:21.705Z,19.75
2023-04-09T08:31:21.845Z,19.61
2023-04-09T08:32:21.871Z,19.62
2023-04-09T08:33:21.903Z,19.75
2023-04-09T08:34:21.945Z,19.63
2023-04-09T08:35:22.016Z,19.64
2023-04-09T08:36:22.177Z,19.64
2023-04-09T08:37:22.115Z,19.49
2023-04-09T08:38:22.168Z,19.43
2023-04-09T08:39:22.219Z,19.46
2023-04-09T08:40:22.340Z,19.34
2023-04-09T08:41:22.337Z,19.34
2023-04-09T08:42:22.332Z,19.25
2023-04-09T08:43:23.625Z,19.19
2023-04-09T08:44:22.526Z,19.11
2023-04-09T08:45:22.543Z,19.07
2023-04-09T08:46:22.613Z,19.07
2023-04-09T08:47:22.605Z,19.07
2023-04-09T08:48:22.709Z,19.02
2023-04-09T08:49:22.614Z,18.98
2023-04-09T08:50:22.615Z,18.92
2023-04-09T08:51:22.637Z,18.93
2023-04-09T08:52:22.661Z,18.87
2023-04-09T08:53:22.653Z,18.83
2023-04-09T08:54:22.659Z,18.82
2023-04-09T08:55:22.676Z,18.80
2023-04-09T08:56:22.723Z,18.80
2023-04-09T08:57:22.731Z,18.82
2023-04-09T08:58:22.787Z,18.70
2023-04-09T08:59:22.830Z,18.73
2023-04-09T09:00:22.890Z,18.67
2023-04-09T09:01:23.017Z,18.69
2023-04-09T09:02:23.130Z,18.66
2023-04-09T09:03:23.122Z,18.61
2023-04-09T09:04:23.213Z,18.66
2023-04-09T09:05:23.202Z,18.64
2023-04-09T09:06:23.285Z,18.66
2023-04-09T09:07:23.313Z,18.69
2023-04-09T09:08:23.385Z,18.68
2023-04-09T09:09:24.453Z,18.65
2023-04-09T09:10:23.496Z,18.63
2023-04-09T09:11:23.529Z,18.68
2023-04-09T09:12:24.339Z,18.71
2023-04-09T09:13:23.646Z,18.68
2023-04-09T09:14:23.695Z,18.66
2023-04-09T09:15:23.740Z,18.68
2023-04-09T09:16:23.808Z,18.67
2023-04-09T09:17:23.864Z,18.67
2023-04-09T09:18:23.887Z,18.70
2023-04-09T09:19:23.895Z,18.72
2023-04-09T09:20:23.875Z,18.73
2023-04-09T09:21:23.845Z,18.72
2023-04-09T09:22:23.844Z,18.78
2023-04-09T09:23:23.826Z,18.70
2023-04-09T09:24:23.810Z,18.71
2023-04-09T09:25:23.821Z,18.72
2023-04-09T09:26:23.796Z,18.72
2023-04-09T09:27:23.791Z,18.74
2023-04-09T09:28:23.769Z,18.75
2023-04-09T09:29:23.798Z,18.77
2023-04-09T09:30:23.827Z,18.75
2023-04-09T09:31:23.904Z,18.77
2023-04-09T09:32:23.954Z,18.74
2023-04-09T09:33:23.949Z,18.83
2023-04-09T09:34:23.980Z,18.82
2023-04-09T09:35:24.157Z,18.84
2023-04-09T09:36:24.052Z,18.84
2023-04-09T09:37:24.097Z,18.87
2023-04-09T09:38:24.146Z,18.82
2023-04-09T09:39:24.161Z,18.87
2023-04-09T09:40:24.223Z,18.90
2023-04-09T09:41:24.262Z,18.88
2023-04-09T09:42:24.301Z,18.88
2023-04-09T09:43:24.310Z,18.90
2023-04-09T09:44:24.361Z,18.95
2023-04-09T09:45:24.394Z,18.98
2023-04-09T09:46:24.455Z,18.93
2023-04-09T09:47:24.476Z,18.97
2023-04-09T09:48:25.757Z,18.97
2023-04-09T09:49:24.672Z,18.98
2023-04-09T09:50:24.717Z,19.01
2023-04-09T09:51:24.742Z,19.01
2023-04-09T09:52:24.773Z,19.01
2023-04-09T09:53:24.811Z,19.04
2023-04-09T09:54:24.851Z,19.04
2023-04-09T09:55:24.894Z,19.09
2023-04-09T09:56:24.893Z,19.06
2023-04-09T09:57:24.928Z,19.06
2023-04-09T09:58:24.953Z,19.09
2023-04-09T09:59:25.001Z,19.14
2023-04-09T10:00:25.085Z,19.14
2023-04-09T10:01:25.128Z,19.13
2023-04-09T10:02:25.226Z,19.13
2023-04-09T10:03:25.215Z,19.16
2023-04-09T10:04:25.180Z,19.11
2023-04-09T10:05:25.205Z,19.16
2023-04-09T10:06:25.269Z,19.14
2023-04-09T10:07:25.285Z,19.19
2023-04-09T10:08:25.317Z,19.19
2023-04-09T10:09:25.352Z,19.19
2023-04-09T10:10:25.406Z,19.22
2023-04-09T10:11:25.422Z,19.22
2023-04-09T10:12:25.434Z,19.25
2023-04-09T10:13:25.467Z,19.29
2023-04-09T10:14:25.531Z,19.25
2023-04-09T10:15:25.567Z,19.22
2023-04-09T10:16:25.682Z,19.36
2023-04-09T10:17:25.670Z,19.35
2023-04-09T10:18:25.651Z,19.36
2023-04-09T10:19:25.678Z,19.36
2023-04-09T10:20:25.713Z,19.38
2023-04-09T10:21:25.745Z,19.43
2023-04-09T10:22:25.796Z,19.33
2023-04-09T10:23:25.826Z,19.40
2023-04-09T10:24:25.854Z,19.41
2023-04-09T10:25:25.895Z,19.48
2023-04-09T10:26:25.919Z,19.43
2023-04-09T10:27:25.950Z,19.46
2023-04-09T10:28:25.993Z,19.51
2023-04-09T10:29:26.124Z,19.39
2023-04-09T10:30:26.077Z,19.43
2023-04-09T10:31:26.141Z,19.41
2023-04-09T10:32:26.254Z,19.43
2023-04-09T10:33:26.144Z,19.41
2023-04-09T10:34:26.112Z,19.46
2023-04-09T10:35:26.143Z,19.46
2023-04-09T10:36:26.159Z,19.41
2023-04-09T10:37:26.081Z,19.46
2023-04-09T10:38:26.074Z,19.47
2023-04-09T10:39:26.058Z,19.46
2023-04-09T10:40:26.048Z,19.46
2023-04-09T10:41:26.034Z,19.38
2023-04-09T10:42:26.024Z,19.43
2023-04-09T10:43:26.030Z,19.43
2023-04-09T10:44:26.024Z,19.41
2023-04-09T10:45:26.067Z,19.43
2023-04-09T10:46:26.130Z,19.38
2023-04-09T10:47:26.156Z,19.43
2023-04-09T10:48:26.166Z,19.43
2023-04-09T10:49:26.186Z,19.43
2023-04-09T10:50:26.229Z,19.38
2023-04-09T10:51:26.257Z,19.35
2023-04-09T10:52:26.292Z,19.43
2023-04-09T10:53:26.388Z,19.38
2023-04-09T10:54:26.363Z,19.45
2023-04-09T10:55:26.394Z,19.38
2023-04-09T10:56:26.432Z,19.38
2023-04-09T10:57:26.463Z,19.41
2023-04-09T10:58:26.505Z,19.46
2023-04-09T10:59:26.547Z,19.46
2023-04-09T11:00:26.578Z,19.45
2023-04-09T11:01:26.715Z,19.43
2023-04-09T11:02:26.814Z,19.43
2023-04-09T11:03:26.704Z,19.41
2023-04-09T11:04:26.734Z,19.41
2023-04-09T11:05:26.740Z,19.36
2023-04-09T11:06:26.778Z,19.46
2023-04-09T11:07:26.830Z,19.41
2023-04-09T11:08:26.832Z,19.38
2023-04-09T11:09:26.871Z,19.35
2023-04-09T11:10:26.934Z,19.46
2023-04-09T11:11:26.909Z,19.36
2023-04-09T11:12:26.894Z,19.43
2023-04-09T11:13:26.873Z,19.45
2023-04-09T11:14:26.872Z,19.40
2023-04-09T11:15:26.879Z,19.36
2023-04-09T11:16:29.038Z,19.35
2023-04-09T11:17:26.875Z,19.41
2023-04-09T11:18:26.854Z,19.45
2023-04-09T11:19:26.871Z,19.40
2023-04-09T11:20:26.941Z,19.45
2023-04-09T11:21:26.957Z,19.38
2023-04-09T11:22:26.981Z,19.38
2023-04-09T11:23:27.032Z,19.48
2023-04-09T11:24:27.051Z,19.43
2023-04-09T11:25:27.128Z,19.46
2023-04-09T11:26:27.145Z,19.43
2023-04-09T11:27:27.180Z,19.45
2023-04-09T11:28:27.228Z,19.40
2023-04-09T11:29:27.261Z,19.46
2023-04-09T11:30:27.324Z,19.40
2023-04-09T11:31:27.395Z,19.40
2023-04-09T11:32:27.443Z,19.43
2023-04-09T11:33:27.429Z,19.45
2023-04-09T11:34:27.475Z,19.46
2023-04-09T11:35:27.507Z,19.47
2023-04-09T11:36:27.594Z,19.42
2023-04-09T11:37:27.591Z,19.43
2023-04-09T11:38:27.662Z,19.50
2023-04-09T11:39:27.655Z,19.47
2023-04-09T11:40:27.688Z,19.48
2023-04-09T11:41:27.734Z,19.48
2023-04-09T11:42:27.769Z,19.43
2023-04-09T11:43:27.832Z,19.47
2023-04-09T11:44:27.862Z,19.42
2023-04-09T11:45:27.911Z,19.50
2023-04-09T11:46:27.976Z,19.52
2023-04-09T11:47:27.985Z,19.50
2023-04-09T11:48:28.023Z,19.45
2023-04-09T11:49:28.050Z,19.49
2023-04-09T11:50:28.081Z,19.46
2023-04-09T11:51:28.120Z,19.47
2023-04-09T11:52:28.154Z,19.50
2023-04-09T11:53:28.191Z,19.52
2023-04-09T11:54:28.200Z,19.54
2023-04-09T11:55:28.253Z,19.46
2023-04-09T11:56:28.272Z,19.51
2023-04-09T11:57:28.296Z,19.46
2023-04-09T11:58:28.339Z,19.46
2023-04-09T11:59:28.369Z,19.51
2023-04-09T12:00:28.386Z,19.51
2023-04-09T12:01:28.444Z,19.51
2023-04-09T12:02:28.529Z,19.44
2023-04-09T12:03:28.748Z,19.52
2023-04-09T12:04:28.631Z,19.49
2023-04-09T12:05:28.545Z,19.49
2023-04-09T12:06:28.595Z,19.52
2023-04-09T12:07:28.602Z,19.46
2023-04-09T12:08:28.624Z,19.56
2023-04-09T12:09:28.662Z,19.57
2023-04-09T12:10:28.687Z,19.56
2023-04-09T12:11:28.743Z,19.54
2023-04-09T12:12:28.746Z,19.54
2023-04-09T12:13:28.773Z,19.56
2023-04-09T12:14:28.801Z,19.56
2023-04-09T12:15:28.837Z,19.59
2023-04-09T12:16:28.911Z,19.56
2023-04-09T12:17:28.962Z,19.61
2023-04-09T12:18:28.918Z,19.57
2023-04-09T12:19:28.945Z,19.57
2023-04-09T12:20:28.985Z,19.61
2023-04-09T12:21:29.029Z,19.64
2023-04-09T12:22:29.057Z,19.61
2023-04-09T12:23:29.085Z,19.64
2023-04-09T12:24:29.101Z,19.62
2023-04-09T12:25:29.137Z,19.65
2023-04-09T12:26:29.168Z,19.62
2023-04-09T12:27:29.187Z,19.67
2023-04-09T12:28:29.212Z,19.64
2023-04-09T12:29:29.243Z,19.69
2023-04-09T12:30:29.279Z,19.74
2023-04-09T12:31:29.461Z,19.69
2023-04-09T12:32:29.376Z,19.70
2023-04-09T12:33:29.373Z,19.65
2023-04-09T12:34:29.403Z,19.72
2023-04-09T12:35:29.524Z,19.73
2023-04-09T12:36:29.502Z,19.75
2023-04-09T12:37:29.507Z,19.72
2023-04-09T12:38:29.567Z,19.75
2023-04-09T12:39:29.574Z,19.83
2023-04-09T12:40:29.615Z,19.78
2023-04-09T12:41:30.660Z,19.77
2023-04-09T12:42:29.682Z,19.77
2023-04-09T12:43:29.728Z,19.83
2023-04-09T12:44:29.752Z,19.78
2023-04-09T12:45:29.792Z,19.81
2023-04-09T12:46:29.890Z,19.80
2023-04-09T12:47:29.878Z,19.85
2023-04-09T12:48:29.885Z,19.80
2023-04-09T12:49:29.921Z,19.81
2023-04-09T12:50:29.935Z,19.90
2023-04-09T12:51:29.961Z,19.88
2023-04-09T12:52:29.993Z,19.91
2023-04-09T12:53:30.043Z,19.89